createdAt,value
2023-05-07T00:01:52.889Z,1.52
2023-05-07T00:04:21.926Z,1.70
2023-05-07T00:06:50.757Z,1.60
2023-05-07T00:09:19.088Z,1.65
2023-05-07T00:11:48.737Z,1.55
2023-05-07T00:14:17.096Z,1.60
2023-05-07T00:16:45.632Z,1.20
2023-05-07T00:19:14.573Z,1.40
2023-05-07T00:21:42.960Z,1.67
2023-05-07T00:24:11.398Z,1.50
2023-05-07T00:26:39.766Z,1.65
2023-05-07T00:29:09.495Z,1.45
2023-05-07T00:31:37.981Z,1.42
2023-05-07T00:34:06.813Z,1.33
2023-05-07T00:36:35.241Z,1.40
2023-05-07T00:39:04.527Z,1.30
2023-05-07T00:41:33.151Z,1.35
2023-05-07T00:44:01.669Z,1.52
2023-05-07T00:46:33.129Z,1.80
2023-05-07T00:49:01.989Z,1.48
2023-05-07T00:51:31.164Z,1.40
2023-05-07T00:53:59.650Z,1.50
2023-05-07T00:56:28.787Z,1.33
2023-05-07T00:58:57.674Z,1.40
2023-05-07T01:01:26.403Z,1.27
2023-05-07T01:03:56.608Z,1.70
2023-05-07T01:06:28.668Z,1.77
2023-05-07T01:08:58.526Z,1.45
2023-05-07T01:11:27.205Z,1.60
2023-05-07T01:13:55.933Z,1.90
2023-05-07T01:16:24.587Z,1.40
2023-05-07T01:18:53.053Z,1.67
2023-05-07T01:21:28.538Z,1.70
2023-05-07T01:24:01.664Z,1.65
2023-05-07T01:26:33.139Z,1.40
2023-05-07T01:29:02.026Z,1.40
2023-05-07T01:34:36.542Z,1.45
2023-05-07T01:37:05.042Z,1.70
2023-05-07T01:39:35.207Z,1.70
2023-05-07T01:42:04.002Z,1.75
2023-05-07T01:44:32.544Z,1.55
2023-05-07T01:47:01.221Z,1.60
2023-05-07T01:49:29.975Z,1.80
2023-05-07T01:51:58.702Z,1.80
2023-05-07T01:54:29.740Z,1.70
2023-05-07T01:57:01.189Z,1.77
2023-05-07T01:59:29.651Z,1.60
2023-05-07T02:01:57.954Z,1.52
2023-05-07T02:04:26.732Z,1.80
2023-05-07T02:06:56.638Z,1.67
2023-05-07T02:09:25.771Z,1.60
2023-05-07T02:11:54.149Z,1.80
2023-05-07T02:14:26.986Z,1.70
2023-05-07T02:16:55.555Z,1.83
2023-05-07T02:19:24.898Z,1.60
2023-05-07T02:21:53.983Z,1.60
2023-05-07T02:24:22.309Z,1.83
2023-05-07T02:26:50.766Z,1.90
2023-05-07T02:29:19.010Z,1.90
2023-05-07T02:31:51.646Z,1.50
2023-05-07T02:34:20.174Z,1.58
2023-05-07T02:36:48.439Z,1.65
2023-05-07T02:39:21.633Z,1.50
2023-05-07T02:41:49.984Z,1.48
2023-05-07T02:44:18.266Z,1.60
2023-05-07T02:46:51.756Z,1.23
2023-05-07T02:49:20.096Z,1.90
2023-05-07T02:51:48.437Z,1.92
2023-05-07T02:54:22.312Z,1.85
2023-05-07T02:56:50.973Z,1.60
2023-05-07T02:59:19.240Z,1.83
2023-05-07T03:01:47.680Z,1.70
2023-05-07T03:04:17.555Z,1.70
2023-05-07T03:06:45.983Z,1.60
2023-05-07T03:09:14.248Z,1.52
2023-05-07T03:11:42.716Z,1.70
2023-05-07T03:14:10.953Z,1.60
2023-05-07T03:16:41.159Z,1.63
2023-05-07T03:19:09.412Z,1.65
2023-05-07T03:21:39.108Z,1.65
2023-05-07T03:24:07.909Z,1.70
2023-05-07T03:26:36.209Z,1.80
2023-05-07T03:29:04.958Z,1.98
2023-05-07T03:31:33.395Z,1.55
2023-05-07T03:34:03.203Z,1.52
2023-05-07T03:36:31.582Z,2.00
2023-05-07T03:39:01.146Z,1.80
2023-05-07T03:41:37.754Z,1.75
2023-05-07T03:44:06.244Z,2.00
2023-05-07T03:46:35.665Z,1.92
2023-05-07T03:49:05.052Z,1.90
2023-05-07T03:51:33.469Z,1.90
2023-05-07T03:54:03.480Z,2.10
2023-05-07T03:56:33.792Z,2.17
2023-05-07T03:59:02.558Z,2.30
2023-05-07T04:01:31.115Z,1.90
2023-05-07T04:03:59.685Z,2.20
2023-05-07T04:06:28.833Z,1.90
2023-05-07T04:08:57.364Z,1.50
2023-05-07T04:11:27.114Z,1.50
2023-05-07T04:13:56.250Z,2.05
2023-05-07T04:16:25.783Z,2.08
2023-05-07T04:18:54.239Z,1.90
2023-05-07T04:21:23.198Z,2.00
2023-05-07T04:23:53.031Z,1.80
2023-05-07T04:26:22.170Z,2.30
2023-05-07T04:28:51.901Z,2.25
2023-05-07T04:31:20.862Z,2.00
2023-05-07T04:33:53.229Z,1.90
2023-05-07T04:36:22.412Z,2.40
2023-05-07T04:38:58.786Z,2.10
2023-05-07T04:41:27.557Z,2.17
2023-05-07T04:43:57.843Z,2.30
2023-05-07T04:46:26.754Z,2.30
2023-05-07T04:48:58.114Z,2.17
2023-05-07T04:51:26.714Z,2.22
2023-05-07T04:53:55.670Z,2.35
2023-05-07T04:56:24.136Z,2.22
2023-05-07T04:58:53.139Z,2.60
2023-05-07T05:01:24.763Z,2.35
2023-05-07T05:03:53.127Z,2.47
2023-05-07T05:06:22.275Z,2.50
2023-05-07T05:08:51.961Z,2.65
2023-05-07T05:11:20.499Z,3.10
2023-05-07T05:13:50.452Z,2.53
2023-05-07T05:16:21.928Z,2.78
2023-05-07T05:18:53.090Z,2.72
2023-05-07T05:21:21.679Z,3.05
2023-05-07T05:23:55.000Z,3.10
2023-05-07T05:26:26.748Z,2.70
2023-05-07T05:28:55.368Z,2.80
2023-05-07T05:31:26.188Z,2.17
2023-05-07T05:33:55.843Z,2.30
2023-05-07T05:36:24.303Z,2.47
2023-05-07T05:38:55.826Z,2.47
2023-05-07T05:41:24.964Z,2.33
2023-05-07T05:43:53.578Z,2.90
2023-05-07T05:46:23.955Z,2.33
2023-05-07T05:48:55.119Z,2.75
2023-05-07T05:51:24.154Z,2.47
2023-05-07T05:53:52.495Z,2.50
2023-05-07T05:56:22.092Z,2.53
2023-05-07T05:58:50.491Z,3.05
2023-05-07T06:01:19.783Z,3.38
2023-05-07T06:03:49.984Z,3.25
2023-05-07T06:06:20.314Z,3.30
2023-05-07T06:08:48.794Z,3.72
2023-05-07T06:11:23.483Z,3.45
2023-05-07T06:13:55.154Z,3.70
2023-05-07T06:16:24.759Z,3.78
2023-05-07T06:18:53.876Z,3.70
2023-05-07T06:21:23.454Z,3.70
2023-05-07T06:23:53.234Z,3.58
2023-05-07T06:26:22.414Z,3.55
2023-05-07T06:28:50.908Z,3.92
2023-05-07T06:31:21.999Z,4.28
2023-05-07T06:33:56.940Z,4.38
2023-05-07T06:36:32.699Z,3.97
2023-05-07T06:39:04.448Z,4.25
2023-05-07T06:41:32.807Z,4.30
2023-05-07T06:44:09.927Z,4.43
2023-05-07T06:46:43.866Z,4.75
2023-05-07T06:49:13.072Z,4.40
2023-05-07T06:51:42.855Z,4.10
2023-05-07T06:54:11.254Z,4.68
2023-05-07T06:56:41.735Z,4.10
2023-05-07T06:59:11.139Z,4.18
2023-05-07T07:01:42.468Z,4.53
2023-05-07T07:04:13.590Z,5.07
2023-05-07T07:06:45.714Z,4.97
2023-05-07T07:09:15.854Z,4.85
2023-05-07T07:11:44.164Z,5.03
2023-05-07T07:14:12.574Z,4.72
2023-05-07T07:16:47.777Z,4.97
2023-05-07T07:19:17.631Z,4.28
2023-05-07T07:21:49.358Z,5.50
2023-05-07T07:24:21.994Z,5.13
2023-05-07T07:26:53.739Z,3.90
2023-05-07T07:29:23.325Z,4.90
2023-05-07T07:31:51.658Z,4.63
2023-05-07T07:34:21.690Z,4.47
2023-05-07T07:36:52.001Z,4.60
2023-05-07T07:39:21.342Z,5.55
2023-05-07T07:41:54.067Z,4.95
2023-05-07T07:44:23.597Z,5.40
2023-05-07T07:46:57.952Z,5.22
2023-05-07T07:49:28.506Z,5.10
2023-05-07T07:52:01.336Z,5.13
2023-05-07T07:54:31.277Z,6.05
2023-05-07T07:57:00.823Z,5.85
2023-05-07T07:59:29.864Z,5.72
2023-05-07T08:01:58.874Z,5.40
2023-05-07T08:04:29.518Z,6.03
2023-05-07T08:07:01.238Z,5.32
2023-05-07T08:09:31.595Z,4.38
2023-05-07T08:12:02.542Z,3.88
2023-05-07T08:14:34.907Z,4.40
2023-05-07T08:17:04.549Z,4.60
2023-05-07T08:19:34.011Z,3.38
2023-05-07T08:22:05.077Z,3.72
2023-05-07T08:24:33.611Z,3.20
2023-05-07T08:27:02.116Z,3.35
2023-05-07T08:29:30.629Z,3.38
2023-05-07T08:31:59.329Z,3.15
2023-05-07T08:34:28.245Z,3.08
2023-05-07T08:36:58.254Z,3.45
2023-05-07T08:39:28.690Z,3.10
2023-05-07T08:41:58.970Z,2.88
2023-05-07T08:44:30.046Z,3.20
2023-05-07T08:47:01.810Z,3.17
2023-05-07T08:49:32.997Z,3.33
2023-05-07T08:52:02.463Z,3.42
2023-05-07T08:54:33.521Z,3.13
2023-05-07T08:57:03.640Z,2.90
2023-05-07T08:59:34.479Z,3.20
2023-05-07T09:02:03.196Z,3.25
2023-05-07T09:04:32.709Z,3.70
2023-05-07T09:07:06.262Z,3.47
2023-05-07T09:09:39.818Z,3.28
2023-05-07T09:12:09.162Z,3.10
2023-05-07T09:14:38.273Z,3.63
2023-05-07T09:17:08.473Z,3.20
2023-05-07T09:19:36.839Z,3.25
2023-05-07T09:22:08.975Z,3.40
2023-05-07T09:24:51.895Z,3.10
2023-05-07T09:27:23.822Z,3.40
2023-05-07T09:29:52.562Z,3.38
2023-05-07T09:32:21.007Z,3.30
2023-05-07T09:34:50.047Z,3.60
2023-05-07T09:37:21.411Z,3.10
2023-05-07T09:39:52.509Z,3.38
2023-05-07T09:42:26.461Z,3.10
2023-05-07T09:44:56.519Z,3.13
2023-05-07T09:47:34.374Z,3.60
2023-05-07T09:50:07.571Z,3.35
2023-05-07T09:52:37.441Z,3.35
2023-05-07T09:55:13.909Z,3.60
2023-05-07T09:57:45.740Z,3.53
2023-05-07T10:00:16.440Z,3.30
2023-05-07T10:02:59.343Z,4.30
2023-05-07T10:05:38.043Z,3.78
2023-05-07T10:08:06.904Z,3.80
2023-05-07T10:10:40.450Z,3.47
2023-05-07T10:13:12.613Z,3.05
2023-05-07T10:15:45.558Z,3.47
2023-05-07T10:18:15.775Z,2.90
2023-05-07T10:20:49.062Z,3.30
2023-05-07T10:23:25.139Z,3.38
2023-05-07T10:26:01.314Z,3.08
2023-05-07T10:28:36.759Z,3.08
2023-05-07T10:31:15.947Z,3.17
2023-05-07T10:33:51.186Z,3.28
2023-05-07T10:36:23.627Z,2.92
2023-05-07T10:38:54.200Z,3.10
2023-05-07T10:41:24.501Z,3.40
2023-05-07T10:43:53.856Z,3.20
2023-05-07T10:46:27.466Z,3.08
2023-05-07T10:49:13.230Z,3.25
2023-05-07T10:51:48.153Z,3.47
2023-05-07T10:54:25.773Z,4.20
2023-05-07T10:57:40.143Z,4.40
2023-05-07T11:00:45.564Z,4.72
2023-05-07T11:03:23.271Z,4.20
2023-05-07T11:06:12.215Z,3.33
2023-05-07T11:08:58.377Z,2.92
2023-05-07T11:11:52.115Z,3.17
2023-05-07T11:14:47.336Z,4.10
2023-05-07T11:17:23.564Z,3.80
2023-05-07T11:20:05.491Z,4.45
2023-05-07T11:22:41.703Z,3.40
2023-05-07T11:25:20.827Z,2.95
2023-05-07T11:27:55.438Z,2.78
2023-05-07T11:30:25.692Z,3.30
2023-05-07T11:32:54.161Z,3.70
2023-05-07T11:35:25.781Z,3.28
2023-05-07T11:38:01.421Z,3.05
2023-05-07T11:40:32.106Z,3.28
2023-05-07T11:43:00.433Z,3.00
2023-05-07T11:45:30.181Z,3.60
2023-05-07T11:47:58.633Z,3.30
2023-05-07T11:50:26.992Z,3.38
2023-05-07T11:52:58.781Z,2.80
2023-05-07T11:55:27.272Z,3.10
2023-05-07T11:57:55.490Z,3.25
2023-05-07T12:00:24.129Z,2.78
2023-05-07T12:02:53.630Z,3.53
2023-05-07T12:05:22.300Z,3.33
2023-05-07T12:07:50.540Z,3.08
2023-05-07T12:10:20.730Z,3.10
2023-05-07T12:12:51.048Z,2.78
2023-05-07T12:15:19.766Z,3.30
2023-05-07T12:17:48.182Z,3.28
2023-05-07T12:20:18.823Z,2.70
2023-05-07T12:22:47.823Z,3.28
2023-05-07T12:27:53.905Z,3.05
2023-05-07T12:30:22.344Z,3.10
2023-05-07T12:32:55.207Z,2.92
2023-05-07T12:35:30.638Z,2.72
2023-05-07T12:38:01.012Z,2.40
2023-05-07T12:40:38.343Z,2.90
2023-05-07T12:43:06.635Z,2.90
2023-05-07T12:45:39.764Z,2.60
2023-05-07T12:48:08.552Z,2.13
2023-05-07T12:50:38.533Z,2.22
2023-05-07T12:53:08.866Z,2.28
2023-05-07T12:55:44.500Z,2.22
2023-05-07T12:58:19.710Z,2.15
2023-05-07T13:00:50.805Z,2.13
2023-05-07T13:03:35.089Z,1.95
2023-05-07T13:06:06.963Z,1.70
2023-05-07T13:08:38.318Z,2.00
2023-05-07T13:11:06.952Z,1.80
2023-05-07T13:13:37.392Z,1.95
2023-05-07T13:16:07.635Z,1.95
2023-05-07T13:18:36.667Z,1.70
2023-05-07T13:21:09.052Z,1.90
2023-05-07T13:23:39.393Z,1.83
2023-05-07T13:26:24.665Z,1.88
2023-05-07T13:28:54.994Z,1.50
2023-05-07T13:31:23.347Z,1.70
2023-05-07T13:33:51.886Z,1.80
2023-05-07T13:36:21.672Z,1.90
2023-05-07T13:38:49.992Z,1.90
2023-05-07T13:41:18.266Z,1.98
2023-05-07T13:43:46.522Z,1.92
2023-05-07T13:46:15.591Z,1.98
2023-05-07T13:48:43.868Z,1.70
2023-05-07T13:51:12.301Z,1.90
2023-05-07T13:53:41.912Z,2.13
2023-05-07T13:56:10.340Z,1.98
2023-05-07T13:58:51.940Z,2.00
2023-05-07T14:01:24.958Z,1.65
2023-05-07T14:03:53.439Z,1.92
2023-05-07T14:06:22.740Z,1.80
2023-05-07T14:08:52.756Z,2.15
2023-05-07T14:11:21.725Z,1.98
2023-05-07T14:13:49.981Z,2.13
2023-05-07T14:16:18.353Z,2.20
2023-05-07T14:18:46.638Z,1.92
2023-05-07T14:21:15.041Z,2.17
2023-05-07T14:23:43.332Z,1.98
2023-05-07T14:26:13.043Z,2.15
2023-05-07T14:28:44.462Z,2.08
2023-05-07T14:31:14.115Z,2.10
2023-05-07T14:33:42.738Z,1.90
2023-05-07T14:36:11.056Z,1.80
2023-05-07T14:38:39.308Z,1.90
2023-05-07T14:41:07.861Z,1.77
2023-05-07T14:43:37.394Z,1.90
2023-05-07T14:46:06.107Z,2.03
2023-05-07T14:48:34.361Z,1.92
2023-05-07T14:51:02.669Z,1.92
2023-05-07T14:53:30.907Z,1.58
2023-05-07T14:55:59.426Z,1.40
2023-05-07T14:58:27.940Z,1.63
2023-05-07T15:00:57.684Z,1.63
2023-05-07T15:03:26.423Z,2.05
2023-05-07T15:05:55.574Z,1.40
2023-05-07T15:08:23.904Z,1.55
2023-05-07T15:10:52.335Z,1.60
2023-05-07T15:13:20.818Z,1.25
2023-05-07T15:15:50.409Z,1.40
2023-05-07T15:18:22.656Z,1.60
2023-05-07T15:20:51.400Z,1.50
2023-05-07T15:23:19.755Z,1.40
2023-05-07T15:25:52.504Z,1.65
2023-05-07T15:28:21.215Z,1.70
2023-05-07T15:30:49.438Z,1.42
2023-05-07T15:33:19.900Z,1.63
2023-05-07T15:35:48.813Z,1.58
2023-05-07T15:38:17.179Z,1.40
2023-05-07T15:40:45.697Z,1.60
2023-05-07T15:43:14.016Z,1.50
2023-05-07T15:45:44.452Z,1.80
2023-05-07T15:48:13.121Z,1.70
2023-05-07T15:50:42.696Z,1.50
2023-05-07T15:53:11.080Z,1.40
2023-05-07T15:55:39.382Z,1.55
2023-05-07T15:58:07.677Z,1.70
2023-05-07T16:00:36.228Z,1.67
2023-05-07T16:03:05.109Z,1.80
2023-05-07T16:05:33.853Z,1.60
2023-05-07T16:08:04.114Z,1.58
2023-05-07T16:10:32.431Z,1.67
2023-05-07T16:13:01.372Z,1.70
2023-05-07T16:15:30.029Z,1.73
2023-05-07T16:17:59.517Z,2.00
2023-05-07T16:20:30.858Z,1.75
2023-05-07T16:22:59.485Z,2.20
2023-05-07T16:25:29.164Z,1.90
2023-05-07T16:27:57.549Z,1.92
2023-05-07T16:30:25.889Z,1.67
2023-05-07T16:32:54.290Z,1.88
2023-05-07T16:35:22.759Z,1.98
2023-05-07T16:37:51.630Z,1.70
2023-05-07T16:40:20.004Z,1.98
2023-05-07T16:42:49.840Z,1.70
2023-05-07T16:45:19.170Z,2.05
2023-05-07T16:47:47.498Z,1.80
2023-05-07T16:50:15.751Z,2.88
2023-05-07T16:52:44.747Z,3.30
2023-05-07T16:55:13.127Z,3.78
2023-05-07T16:57:41.652Z,3.63
2023-05-07T17:00:14.333Z,3.70
2023-05-07T17:02:43.517Z,3.35
2023-05-07T17:05:12.017Z,3.90
2023-05-07T17:07:40.568Z,4.22
2023-05-07T17:10:09.581Z,3.80
2023-05-07T17:12:38.167Z,3.78
2023-05-07T17:15:07.129Z,3.38
2023-05-07T17:17:36.957Z,3.67
2023-05-07T17:20:06.221Z,3.83
2023-05-07T17:22:34.615Z,3.90
2023-05-07T17:25:04.412Z,3.50
2023-05-07T17:27:34.245Z,3.65
2023-05-07T17:30:02.978Z,3.58
2023-05-07T17:32:34.986Z,3.80
2023-05-07T17:35:05.312Z,3.53
2023-05-07T17:37:33.636Z,3.95
2023-05-07T17:40:02.887Z,5.00
2023-05-07T17:42:31.880Z,4.45
2023-05-07T17:45:00.236Z,4.40
2023-05-07T17:47:28.622Z,4.22
2023-05-07T17:49:57.021Z,4.43
2023-05-07T17:52:26.792Z,4.18
2023-05-07T17:54:55.058Z,4.15
2023-05-07T17:57:23.361Z,4.28
2023-05-07T17:59:51.642Z,4.40
2023-05-07T18:02:20.133Z,4.70
2023-05-07T18:04:48.437Z,4.05
2023-05-07T18:07:16.747Z,4.78
2023-05-07T18:09:46.407Z,4.78
2023-05-07T18:12:14.932Z,4.72
2023-05-07T18:14:43.297Z,4.95
2023-05-07T18:17:13.937Z,4.65
2023-05-07T18:19:43.662Z,5.10
2023-05-07T18:22:11.998Z,4.82
2023-05-07T18:24:40.386Z,4.90
2023-05-07T18:27:10.193Z,4.63
2023-05-07T18:29:39.071Z,4.70
2023-05-07T18:32:07.912Z,5.00
2023-05-07T18:34:36.226Z,4.55
2023-05-07T18:37:04.550Z,5.15
2023-05-07T18:39:33.628Z,5.18
2023-05-07T18:42:05.054Z,6.30
2023-05-07T18:44:37.421Z,5.20
2023-05-07T18:47:05.965Z,5.72
2023-05-07T18:49:34.623Z,5.75
2023-05-07T18:52:03.711Z,6.38
2023-05-07T18:54:31.975Z,5.65
2023-05-07T18:57:00.402Z,5.78
2023-05-07T18:59:28.775Z,5.57
2023-05-07T19:01:59.294Z,5.47
2023-05-07T19:04:27.785Z,6.57
2023-05-07T19:06:56.079Z,5.50
2023-05-07T19:09:24.848Z,5.50
2023-05-07T19:11:53.242Z,5.63
2023-05-07T19:14:21.564Z,5.57
2023-05-07T19:16:49.988Z,5.57
2023-05-07T19:19:19.703Z,5.20
2023-05-07T19:21:48.569Z,5.40
2023-05-07T19:24:17.529Z,5.68
2023-05-07T19:26:45.856Z,4.97
2023-05-07T19:29:18.208Z,5.97
2023-05-07T19:31:47.378Z,5.82
2023-05-07T19:34:15.884Z,5.53
2023-05-07T19:36:45.830Z,5.85
2023-05-07T19:39:14.749Z,5.70
2023-05-07T19:41:43.163Z,5.97
2023-05-07T19:44:11.462Z,6.20
2023-05-07T19:46:44.514Z,6.10
2023-05-07T19:49:14.756Z,6.15
2023-05-07T19:51:43.058Z,6.55
2023-05-07T19:54:12.702Z,6.43
2023-05-07T19:56:41.815Z,6.05
2023-05-07T19:59:10.543Z,5.78
2023-05-07T20:01:39.827Z,5.50
2023-05-07T20:04:08.932Z,5.60
2023-05-07T20:06:37.435Z,5.72
2023-05-07T20:09:07.381Z,5.38
2023-05-07T20:11:37.136Z,5.80
2023-05-07T20:14:05.813Z,5.57
2023-05-07T20:16:34.159Z,6.00
2023-05-07T20:19:02.467Z,5.45
2023-05-07T20:21:31.276Z,5.28
2023-05-07T20:23:59.616Z,6.28
2023-05-07T20:26:28.141Z,6.50
2023-05-07T20:29:00.521Z,6.40
2023-05-07T20:31:29.004Z,6.38
2023-05-07T20:33:57.636Z,6.63
2023-05-07T20:36:26.815Z,7.20
2023-05-07T20:38:55.631Z,5.82
2023-05-07T20:41:27.980Z,5.97
2023-05-07T20:43:57.009Z,5.25
2023-05-07T20:46:27.737Z,5.50
2023-05-07T20:48:57.807Z,5.90
2023-05-07T20:51:27.123Z,5.70
2023-05-07T20:53:56.026Z,6.13
2023-05-07T20:56:24.528Z,5.57
2023-05-07T20:58:53.368Z,5.60
2023-05-07T21:01:22.316Z,5.25
2023-05-07T21:03:54.044Z,6.25
2023-05-07T21:06:22.746Z,5.80
2023-05-07T21:08:51.322Z,5.40
2023-05-07T21:11:21.815Z,5.65
2023-05-07T21:13:53.880Z,5.50
2023-05-07T21:16:23.117Z,6.03
2023-05-07T21:18:53.922Z,5.45
2023-05-07T21:21:22.554Z,5.70
2023-05-07T21:23:50.843Z,5.88
2023-05-07T21:26:19.962Z,5.70
2023-05-07T21:28:48.282Z,5.50
2023-05-07T21:31:16.626Z,5.95
2023-05-07T21:33:45.342Z,6.28
2023-05-07T21:36:15.092Z,6.00
2023-05-07T21:38:44.956Z,6.50
2023-05-07T21:41:13.709Z,5.90
2023-05-07T21:43:42.187Z,6.05
2023-05-07T21:46:11.129Z,6.13
2023-05-07T21:48:39.795Z,6.25
2023-05-07T21:51:09.498Z,5.68
2023-05-07T21:53:40.274Z,5.68
2023-05-07T21:56:08.613Z,6.38
2023-05-07T21:58:36.910Z,5.95
2023-05-07T22:01:05.478Z,6.00
2023-05-07T22:03:34.131Z,6.03
2023-05-07T22:06:02.478Z,5.60
2023-05-07T22:08:30.777Z,6.20
2023-05-07T22:11:00.418Z,6.22
2023-05-07T22:13:28.773Z,6.90
2023-05-07T22:15:58.480Z,5.82
2023-05-07T22:18:27.288Z,6.40
2023-05-07T22:20:55.578Z,6.70
2023-05-07T22:23:24.085Z,6.60
2023-05-07T22:25:52.587Z,6.88
2023-05-07T22:28:22.467Z,6.40
2023-05-07T22:30:52.066Z,6.85
2023-05-07T22:33:20.426Z,6.90
2023-05-07T22:35:48.640Z,6.72
2023-05-07T22:38:16.930Z,6.10
2023-05-07T22:40:45.528Z,6.47
2023-05-07T22:43:13.769Z,6.85
2023-05-07T22:45:43.616Z,6.97
2023-05-07T22:48:12.008Z,6.38
2023-05-07T22:50:40.687Z,6.45
2023-05-07T22:53:08.962Z,7.00
2023-05-07T22:55:37.223Z,6.38
2023-05-07T22:58:05.509Z,6.65
2023-05-07T23:00:34.168Z,6.90
2023-05-07T23:03:04.054Z,6.90
2023-05-07T23:05:32.472Z,6.40
2023-05-07T23:08:01.065Z,6.63
2023-05-07T23:10:29.322Z,6.70
2023-05-07T23:12:57.600Z,6.57
2023-05-07T23:15:25.948Z,6.57
2023-05-07T23:17:54.266Z,6.32
2023-05-07T23:20:24.009Z,6.07
2023-05-07T23:22:52.472Z,6.70
2023-05-07T23:25:20.850Z,6.20
2023-05-07T23:27:49.743Z,6.30
2023-05-07T23:30:18.394Z,6.38
2023-05-07T23:32:46.715Z,6.53
2023-05-07T23:35:15.036Z,6.68
2023-05-07T23:37:44.890Z,6.22
2023-05-07T23:40:13.614Z,6.20
2023-05-07T23:42:42.116Z,6.43
2023-05-07T23:45:11.184Z,6.28
2023-05-07T23:47:39.651Z,6.70
2023-05-07T23:50:08.512Z,6.13
2023-05-07T23:52:36.831Z,6.05
2023-05-07T23:55:07.156Z,6.15
2023-05-07T23:57:35.490Z,6.63
